createdAt,value
2018-05-14T00:01:30.687Z,4.13
2018-05-14T00:03:58.940Z,4.47
2018-05-14T00:06:27.176Z,4.60
2018-05-14T00:08:55.516Z,4.10
2018-05-14T00:11:23.752Z,4.53
2018-05-14T00:13:53.168Z,4.20
2018-05-14T00:16:21.415Z,4.20
2018-05-14T00:18:50.461Z,4.10
2018-05-14T00:21:18.739Z,4.30
2018-05-14T00:23:47.015Z,4.53
2018-05-14T00:26:15.791Z,4.20
2018-05-14T00:28:44.071Z,4.40
2018-05-14T00:31:12.979Z,4.30
2018-05-14T00:33:41.243Z,4.90
2018-05-14T00:36:09.524Z,3.83
2018-05-14T00:38:37.788Z,3.90
2018-05-14T00:41:06.058Z,4.40
2018-05-14T00:43:34.718Z,4.70
2018-05-14T00:46:03.731Z,4.70
2018-05-14T00:48:31.975Z,4.70
2018-05-14T00:51:00.987Z,4.30
2018-05-14T00:53:29.228Z,5.00
2018-05-14T00:55:58.238Z,4.47
2018-05-14T00:58:27.239Z,4.80
2018-05-14T01:00:56.249Z,4.37
2018-05-14T01:03:24.534Z,4.37
2018-05-14T01:05:52.779Z,4.77
2018-05-14T01:08:21.802Z,5.20
2018-05-14T01:10:50.051Z,4.60
2018-05-14T01:13:18.354Z,5.03
2018-05-14T01:15:46.612Z,4.57
2018-05-14T01:18:14.863Z,4.53
2018-05-14T01:20:43.875Z,5.10
2018-05-14T01:23:12.175Z,4.47
2018-05-14T01:25:40.424Z,4.80
2018-05-14T01:28:08.722Z,4.50
2018-05-14T01:30:36.999Z,5.13
2018-05-14T01:33:05.278Z,4.73
2018-05-14T01:35:33.531Z,5.03
2018-05-14T01:38:01.830Z,4.80
2018-05-14T01:40:30.079Z,4.87
2018-05-14T01:42:58.319Z,5.10
2018-05-14T01:45:26.587Z,4.77
2018-05-14T01:47:54.827Z,5.03
2018-05-14T01:50:23.099Z,4.97
2018-05-14T01:52:51.355Z,5.07
2018-05-14T01:55:19.659Z,5.37
2018-05-14T01:57:47.902Z,4.83
2018-05-14T02:00:16.207Z,5.27
2018-05-14T02:02:44.456Z,5.03
2018-05-14T02:05:14.250Z,5.03
2018-05-14T02:07:43.264Z,5.00
2018-05-14T02:10:11.500Z,4.77
2018-05-14T02:12:39.843Z,5.33
2018-05-14T02:15:08.079Z,5.10
2018-05-14T02:17:37.090Z,5.07
2018-05-14T02:20:05.375Z,4.97
2018-05-14T02:22:33.663Z,4.80
2018-05-14T02:25:01.910Z,5.33
2018-05-14T02:27:30.207Z,5.80
2018-05-14T02:29:58.451Z,5.57
2018-05-14T02:32:27.459Z,5.27
2018-05-14T02:34:55.757Z,5.50
2018-05-14T02:37:24.027Z,5.67
2018-05-14T02:39:53.235Z,5.67
2018-05-14T02:42:21.484Z,5.33
2018-05-14T02:44:49.735Z,5.90
2018-05-14T02:47:18.751Z,5.33
2018-05-14T02:49:47.050Z,5.97
2018-05-14T02:52:15.727Z,5.63
2018-05-14T02:54:43.968Z,5.80
2018-05-14T02:57:12.990Z,5.70
2018-05-14T02:59:41.275Z,6.10
2018-05-14T03:02:09.543Z,6.20
2018-05-14T03:04:37.779Z,5.80
2018-05-14T03:07:06.801Z,6.00
2018-05-14T03:09:35.049Z,6.33
2018-05-14T03:12:04.079Z,6.20
2018-05-14T03:14:32.325Z,6.17
2018-05-14T03:17:01.449Z,6.40
2018-05-14T03:19:29.691Z,5.70
2018-05-14T03:21:58.701Z,6.00
2018-05-14T03:24:26.991Z,6.23
2018-05-14T03:26:55.267Z,6.30
2018-05-14T03:29:23.544Z,5.93
2018-05-14T03:31:51.785Z,5.80
2018-05-14T03:34:20.811Z,6.20
2018-05-14T03:36:49.728Z,6.47
2018-05-14T03:39:18.795Z,5.67
2018-05-14T03:41:47.092Z,6.53
2018-05-14T03:44:15.350Z,5.70
2018-05-14T03:46:43.627Z,6.50
2018-05-14T03:49:13.543Z,6.47
2018-05-14T03:51:41.798Z,6.67
2018-05-14T03:54:10.087Z,6.07
2018-05-14T03:56:38.367Z,5.63
2018-05-14T03:59:18.515Z,6.20
2018-05-14T04:01:58.504Z,6.50
2018-05-14T04:04:38.727Z,6.20
2018-05-14T04:07:06.968Z,5.90
2018-05-14T04:09:35.979Z,5.50
2018-05-14T04:12:05.188Z,6.23
2018-05-14T04:14:33.436Z,6.20
2018-05-14T04:17:02.435Z,6.30
2018-05-14T04:19:30.691Z,6.00
2018-05-14T04:21:59.707Z,6.40
2018-05-14T04:24:28.033Z,5.80
2018-05-14T04:26:56.275Z,5.83
2018-05-14T04:29:24.523Z,5.97
2018-05-14T04:31:53.527Z,6.77
2018-05-14T04:34:21.778Z,6.80
2018-05-14T04:36:50.816Z,6.80
2018-05-14T04:39:19.091Z,6.40
2018-05-14T04:41:47.382Z,6.47
2018-05-14T04:44:15.634Z,7.03
2018-05-14T04:46:43.870Z,6.37
2018-05-14T04:49:12.191Z,6.83
2018-05-14T04:51:40.474Z,7.43
2018-05-14T04:54:08.723Z,6.33
2018-05-14T04:56:37.019Z,7.43
2018-05-14T04:59:05.266Z,6.70
2018-05-14T05:01:34.310Z,7.10
2018-05-14T05:04:02.559Z,7.10
2018-05-14T05:06:30.803Z,7.50
2018-05-14T05:08:59.808Z,7.07
2018-05-14T05:11:28.918Z,7.03
2018-05-14T05:13:57.107Z,7.27
2018-05-14T05:16:25.393Z,7.20
2018-05-14T05:18:53.818Z,6.50
2018-05-14T05:21:22.823Z,7.77
2018-05-14T05:23:52.191Z,7.13
2018-05-14T05:26:20.523Z,7.73
2018-05-14T05:28:48.759Z,7.23
2018-05-14T05:31:17.768Z,7.83
2018-05-14T05:33:46.019Z,7.50
2018-05-14T05:36:14.312Z,7.43
2018-05-14T05:38:42.547Z,7.13
2018-05-14T05:41:10.997Z,7.57
2018-05-14T05:43:39.236Z,7.70
2018-05-14T05:46:08.263Z,7.67
2018-05-14T05:48:36.517Z,8.07
2018-05-14T05:51:04.821Z,7.97
2018-05-14T05:53:33.051Z,7.50
2018-05-14T05:56:02.059Z,8.10
2018-05-14T05:58:30.307Z,7.70
2018-05-14T06:00:58.835Z,7.83
2018-05-14T06:03:27.120Z,7.73
2018-05-14T06:05:55.359Z,7.73
2018-05-14T06:08:24.386Z,7.53
2018-05-14T06:10:52.647Z,8.60
2018-05-14T06:13:20.932Z,8.83
2018-05-14T06:15:49.216Z,9.20
2018-05-14T06:18:17.462Z,9.03
2018-05-14T06:20:45.721Z,9.07
2018-05-14T06:23:14.757Z,9.20
2018-05-14T06:25:43.007Z,8.67
2018-05-14T06:28:11.255Z,10.23
2018-05-14T06:30:39.688Z,10.23
2018-05-14T06:33:08.060Z,9.87
2018-05-14T06:35:36.419Z,10.47
2018-05-14T06:38:04.595Z,9.80
2018-05-14T06:40:32.835Z,10.67
2018-05-14T06:43:01.091Z,10.07
2018-05-14T06:45:29.345Z,11.00
2018-05-14T06:47:57.601Z,10.03
2018-05-14T06:50:25.850Z,10.77
2018-05-14T06:52:54.922Z,10.00
2018-05-14T06:55:23.155Z,9.87
2018-05-14T06:57:54.118Z,10.37
2018-05-14T07:00:22.388Z,10.00
2018-05-14T07:02:50.757Z,9.83
2018-05-14T07:05:18.998Z,10.50
2018-05-14T07:07:47.765Z,9.80
2018-05-14T07:10:16.772Z,9.83
2018-05-14T07:12:45.027Z,10.17
2018-05-14T07:15:14.047Z,11.20
2018-05-14T07:17:42.313Z,11.17
2018-05-14T07:20:11.329Z,10.20
2018-05-14T07:22:39.617Z,10.70
2018-05-14T07:25:07.867Z,10.60
2018-05-14T07:27:36.143Z,11.20
2018-05-14T07:30:04.767Z,10.53
2018-05-14T07:32:33.733Z,9.73
2018-05-14T07:35:01.990Z,10.37
2018-05-14T07:37:30.256Z,10.53
2018-05-14T07:39:58.508Z,10.73
2018-05-14T07:42:27.559Z,10.63
2018-05-14T07:44:55.829Z,10.97
2018-05-14T07:47:24.211Z,9.90
2018-05-14T07:49:52.483Z,9.97
2018-05-14T07:52:20.759Z,9.77
2018-05-14T07:54:49.490Z,9.77
2018-05-14T07:57:17.723Z,9.67
2018-05-14T07:59:45.963Z,9.47
2018-05-14T08:02:14.991Z,10.80
2018-05-14T08:04:43.242Z,10.43
2018-05-14T08:07:11.487Z,10.70
2018-05-14T08:09:39.774Z,10.13
2018-05-14T08:12:08.792Z,10.60
2018-05-14T08:14:37.092Z,10.63
2018-05-14T08:17:05.335Z,10.73
2018-05-14T08:19:33.583Z,9.63
2018-05-14T08:22:01.966Z,11.13
2018-05-14T08:24:30.216Z,11.20
2018-05-14T08:26:58.567Z,10.97
2018-05-14T08:29:26.821Z,11.07
2018-05-14T08:31:55.122Z,11.13
2018-05-14T08:34:23.374Z,11.87
2018-05-14T08:36:51.619Z,10.70
2018-05-14T08:39:20.643Z,10.37
2018-05-14T08:41:48.891Z,11.30
2018-05-14T08:44:18.028Z,11.10
2018-05-14T08:46:46.274Z,10.40
2018-05-14T08:49:15.403Z,11.57
2018-05-14T08:51:43.647Z,11.17
2018-05-14T08:54:12.678Z,10.73
2018-05-14T08:56:40.942Z,11.50
2018-05-14T08:59:09.222Z,10.70
2018-05-14T09:01:37.508Z,10.77
2018-05-14T09:04:05.775Z,10.90
2018-05-14T09:06:34.150Z,11.10
2018-05-14T09:09:02.335Z,10.47
2018-05-14T09:11:30.594Z,11.17
2018-05-14T09:13:58.878Z,11.20
2018-05-14T09:16:27.119Z,11.60
2018-05-14T09:18:55.372Z,11.13
2018-05-14T09:21:23.619Z,10.20
2018-05-14T09:23:51.991Z,10.90
2018-05-14T09:26:20.218Z,11.50
2018-05-14T09:28:49.240Z,10.70
2018-05-14T09:31:17.550Z,10.03
2018-05-14T09:33:45.735Z,10.07
2018-05-14T09:36:14.063Z,9.87
2018-05-14T09:38:42.303Z,9.50
2018-05-14T09:41:11.333Z,9.73
2018-05-14T09:43:39.608Z,9.00
2018-05-14T09:46:07.855Z,9.57
2018-05-14T09:48:36.883Z,9.13
2018-05-14T09:51:05.132Z,9.87
2018-05-14T09:53:33.423Z,9.40
2018-05-14T09:56:01.675Z,9.40
2018-05-14T09:58:30.692Z,8.53
2018-05-14T10:00:58.935Z,9.90
2018-05-14T10:03:28.050Z,8.53
2018-05-14T10:05:56.234Z,8.07
2018-05-14T10:08:24.510Z,8.07
2018-05-14T10:10:52.791Z,7.70
2018-05-14T10:13:21.024Z,7.20
2018-05-14T10:15:50.055Z,7.47
2018-05-14T10:18:19.301Z,6.83
2018-05-14T10:20:47.598Z,7.37
2018-05-14T10:23:16.602Z,7.07
2018-05-14T10:25:44.902Z,7.10
2018-05-14T10:28:13.178Z,7.10
2018-05-14T10:30:41.428Z,6.53
2018-05-14T10:33:09.726Z,6.70
2018-05-14T10:35:37.962Z,7.03
2018-05-14T10:38:06.995Z,6.73
2018-05-14T10:40:35.310Z,6.20
2018-05-14T10:43:03.599Z,6.67
2018-05-14T10:45:31.838Z,6.53
2018-05-14T10:48:00.095Z,6.50
2018-05-14T10:50:28.351Z,6.40
2018-05-14T10:52:56.652Z,6.47
2018-05-14T10:55:24.823Z,5.90
2018-05-14T10:57:53.095Z,6.20
2018-05-14T11:00:21.335Z,6.13
2018-05-14T11:02:50.345Z,6.60
2018-05-14T11:05:18.638Z,5.77
2018-05-14T11:07:46.960Z,5.77
2018-05-14T11:10:15.183Z,6.20
2018-05-14T11:12:43.435Z,6.57
2018-05-14T11:15:12.459Z,5.83
2018-05-14T11:17:40.699Z,5.53
2018-05-14T11:20:09.703Z,5.77
2018-05-14T11:22:37.947Z,5.33
2018-05-14T11:25:06.276Z,4.90
2018-05-14T11:27:35.382Z,5.17
2018-05-14T11:30:03.601Z,4.60
2018-05-14T11:32:31.919Z,5.43
2018-05-14T11:35:00.200Z,5.30
2018-05-14T11:37:28.443Z,5.90
2018-05-14T11:39:56.787Z,4.87
2018-05-14T11:42:25.036Z,5.43
2018-05-14T11:44:53.298Z,4.87
2018-05-14T11:47:21.555Z,4.60
2018-05-14T11:49:49.846Z,4.40
2018-05-14T11:52:18.091Z,4.27
2018-05-14T11:54:47.100Z,4.43
2018-05-14T11:57:15.392Z,4.60
2018-05-14T11:59:43.627Z,4.90
2018-05-14T12:02:12.663Z,4.20
2018-05-14T12:04:41.039Z,4.10
2018-05-14T12:07:09.288Z,4.73
2018-05-14T12:09:38.310Z,4.00
2018-05-14T12:12:06.592Z,4.07
2018-05-14T12:14:34.818Z,4.20
2018-05-14T12:17:03.848Z,3.83
2018-05-14T12:19:32.085Z,4.00
2018-05-14T12:22:01.125Z,4.10
2018-05-14T12:24:29.367Z,4.30
2018-05-14T12:26:57.662Z,4.17
2018-05-14T12:29:25.903Z,4.33
2018-05-14T12:31:54.982Z,4.50
2018-05-14T12:34:23.406Z,4.80
2018-05-14T12:36:52.386Z,4.57
2018-05-14T12:39:20.678Z,4.57
2018-05-14T12:41:48.916Z,3.93
2018-05-14T12:44:17.935Z,4.50
2018-05-14T12:46:46.232Z,5.00
2018-05-14T12:49:14.500Z,4.70
2018-05-14T12:51:43.048Z,4.23
2018-05-14T12:54:12.053Z,4.73
2018-05-14T12:56:41.052Z,4.20
2018-05-14T12:59:09.350Z,4.17
2018-05-14T13:01:37.668Z,4.23
2018-05-14T13:04:05.894Z,4.60
2018-05-14T13:06:34.386Z,3.80
2018-05-14T13:09:02.631Z,4.60
2018-05-14T13:11:30.876Z,4.30
2018-05-14T13:13:59.111Z,4.33
2018-05-14T13:16:27.347Z,4.33
2018-05-14T13:18:56.475Z,4.07
2018-05-14T13:21:24.751Z,4.40
2018-05-14T13:23:53.023Z,4.60
2018-05-14T13:26:21.438Z,4.53
2018-05-14T13:28:49.582Z,4.30
2018-05-14T13:31:17.852Z,4.20
2018-05-14T13:33:46.100Z,4.40
2018-05-14T13:36:15.124Z,4.73
2018-05-14T13:38:43.383Z,3.93
2018-05-14T13:41:11.619Z,3.60
2018-05-14T13:43:39.856Z,3.93
2018-05-14T13:46:08.095Z,4.20
2018-05-14T13:48:36.407Z,4.23
2018-05-14T13:51:04.770Z,4.10
2018-05-14T13:53:32.907Z,4.07
2018-05-14T13:56:01.922Z,3.70
2018-05-14T13:58:30.648Z,4.03
2018-05-14T14:00:58.887Z,4.03
2018-05-14T14:03:27.119Z,4.00
2018-05-14T14:05:55.359Z,3.43
2018-05-14T14:08:23.604Z,3.50
2018-05-14T14:10:52.617Z,3.47
2018-05-14T14:13:20.850Z,3.27
2018-05-14T14:15:49.100Z,3.47
2018-05-14T14:18:17.343Z,3.40
2018-05-14T14:20:45.614Z,3.40
2018-05-14T14:23:13.908Z,3.40
2018-05-14T14:25:42.149Z,3.20
2018-05-14T14:28:10.387Z,3.23
2018-05-14T14:30:38.632Z,3.33
2018-05-14T14:33:06.871Z,3.30
2018-05-14T14:35:35.119Z,3.53
2018-05-14T14:38:03.351Z,3.07
2018-05-14T14:40:31.631Z,2.50
2018-05-14T14:42:59.871Z,2.47
2018-05-14T14:45:28.119Z,2.57
2018-05-14T14:47:56.451Z,2.50
2018-05-14T14:50:24.703Z,2.50
2018-05-14T14:52:52.939Z,2.40
2018-05-14T14:55:21.177Z,2.73
2018-05-14T14:57:49.447Z,2.80
2018-05-14T15:00:17.715Z,2.70
2018-05-14T15:02:45.967Z,2.70
2018-05-14T15:05:14.999Z,2.97
2018-05-14T15:07:43.238Z,2.47
2018-05-14T15:10:11.487Z,2.60
2018-05-14T15:12:39.923Z,2.80
2018-05-14T15:15:08.155Z,2.63
2018-05-14T15:17:37.164Z,2.80
2018-05-14T15:20:05.484Z,2.80
2018-05-14T15:22:33.735Z,2.60
2018-05-14T15:25:02.032Z,2.67
2018-05-14T15:27:31.084Z,2.93
2018-05-14T15:29:59.751Z,3.10
2018-05-14T15:32:27.998Z,2.70
2018-05-14T15:34:56.343Z,3.20
2018-05-14T15:37:24.615Z,2.80
2018-05-14T15:39:52.847Z,3.00
2018-05-14T15:42:21.959Z,2.63
2018-05-14T15:44:50.161Z,2.40
2018-05-14T15:47:18.403Z,2.73
2018-05-14T15:49:47.403Z,3.00
2018-05-14T15:52:16.419Z,2.97
2018-05-14T15:54:44.656Z,2.77
2018-05-14T15:57:13.667Z,2.73
2018-05-14T15:59:41.904Z,3.13
2018-05-14T16:02:10.184Z,3.03
2018-05-14T16:04:38.389Z,2.90
2018-05-14T16:07:07.319Z,2.67
2018-05-14T16:09:35.559Z,3.27
2018-05-14T16:12:03.851Z,2.77
2018-05-14T16:14:32.169Z,3.33
2018-05-14T16:17:01.093Z,3.30
2018-05-14T16:19:30.094Z,2.90
2018-05-14T16:21:58.340Z,2.90
2018-05-14T16:24:26.570Z,2.97
2018-05-14T16:26:54.811Z,3.30
2018-05-14T16:29:23.831Z,3.13
2018-05-14T16:31:52.090Z,3.80
2018-05-14T16:34:20.755Z,3.57
2018-05-14T16:36:49.786Z,2.87
2018-05-14T16:39:18.031Z,2.90
2018-05-14T16:41:47.036Z,3.63
2018-05-14T16:44:15.283Z,3.60
2018-05-14T16:46:44.322Z,3.60
2018-05-14T16:49:12.563Z,3.50
2018-05-14T16:51:41.592Z,3.37
2018-05-14T16:54:09.864Z,3.33
2018-05-14T16:56:38.139Z,3.00
2018-05-14T16:59:06.415Z,4.00
2018-05-14T17:01:34.659Z,3.37
2018-05-14T17:04:03.725Z,3.37
2018-05-14T17:06:31.920Z,3.80
2018-05-14T17:09:01.161Z,3.03
2018-05-14T17:11:29.427Z,3.70
2018-05-14T17:13:57.670Z,3.80
2018-05-14T17:16:26.696Z,3.60
2018-05-14T17:18:55.075Z,3.67
2018-05-14T17:21:23.310Z,3.30
2018-05-14T17:23:52.340Z,3.90
2018-05-14T17:26:21.464Z,3.70
2018-05-14T17:28:49.610Z,3.57
2018-05-14T17:31:17.998Z,3.80
2018-05-14T17:33:46.258Z,3.70
2018-05-14T17:36:14.643Z,3.90
2018-05-14T17:38:43.514Z,3.80
2018-05-14T17:41:11.748Z,4.10
2018-05-14T17:43:39.991Z,3.73
2018-05-14T17:46:08.262Z,4.10
2018-05-14T17:48:36.502Z,4.07
2018-05-14T17:51:04.807Z,4.40
2018-05-14T17:53:33.046Z,4.40
2018-05-14T17:56:02.052Z,3.87
2018-05-14T17:58:30.347Z,4.00
2018-05-14T18:00:58.581Z,4.20
2018-05-14T18:03:27.611Z,3.90
2018-05-14T18:05:55.891Z,4.33
2018-05-14T18:08:24.167Z,4.87
2018-05-14T18:10:52.501Z,4.77
2018-05-14T18:13:22.416Z,5.57
2018-05-14T18:15:51.890Z,4.33
2018-05-14T18:18:20.120Z,4.70
2018-05-14T18:20:48.363Z,4.67
2018-05-14T18:23:23.248Z,4.73
2018-05-14T18:25:57.131Z,4.27
2018-05-14T18:28:31.163Z,4.40
2018-05-14T18:31:02.235Z,4.83
2018-05-14T18:33:30.474Z,4.40
2018-05-14T18:35:58.743Z,4.83
2018-05-14T18:38:26.978Z,4.83
2018-05-14T18:40:55.983Z,5.10
2018-05-14T18:43:24.984Z,4.60
2018-05-14T18:45:53.280Z,5.70
2018-05-14T18:48:21.515Z,5.90
2018-05-14T18:50:50.547Z,5.23
2018-05-14T18:53:18.783Z,5.03
2018-05-14T18:55:47.816Z,5.10
2018-05-14T18:58:16.050Z,4.80
2018-05-14T19:00:45.062Z,5.07
2018-05-14T19:03:13.290Z,5.40
2018-05-14T19:05:41.533Z,5.07
2018-05-14T19:08:09.772Z,5.00
2018-05-14T19:10:44.414Z,5.10
2018-05-14T19:13:12.653Z,5.00
2018-05-14T19:15:48.147Z,5.30
2018-05-14T19:18:16.383Z,5.10
2018-05-14T19:20:45.389Z,4.73
2018-05-14T19:23:20.103Z,5.13
2018-05-14T19:25:49.111Z,5.30
2018-05-14T19:28:22.983Z,5.27
2018-05-14T19:30:51.229Z,5.20
2018-05-14T19:33:25.238Z,5.00
2018-05-14T19:36:04.404Z,4.97
2018-05-14T19:38:32.634Z,5.30
2018-05-14T19:41:00.878Z,5.03
2018-05-14T19:43:29.878Z,4.73
2018-05-14T19:45:58.129Z,5.23
2018-05-14T19:48:26.351Z,5.17
2018-05-14T19:50:54.659Z,5.20
2018-05-14T19:53:23.595Z,5.17
2018-05-14T19:55:51.863Z,5.10
2018-05-14T19:58:20.867Z,5.70
2018-05-14T20:00:49.099Z,5.50
2018-05-14T20:03:17.435Z,5.07
2018-05-14T20:05:45.671Z,5.80
2018-05-14T20:08:14.683Z,4.90
2018-05-14T20:10:42.921Z,5.00
2018-05-14T20:13:12.674Z,5.80
2018-05-14T20:15:41.670Z,4.83
2018-05-14T20:18:09.915Z,4.77
2018-05-14T20:20:38.951Z,5.17
2018-05-14T20:23:07.531Z,5.40
2018-05-14T20:25:35.767Z,5.20
2018-05-14T20:28:04.772Z,5.43
2018-05-14T20:30:33.079Z,5.07
2018-05-14T20:33:01.333Z,5.47
2018-05-14T20:35:29.567Z,5.50
2018-05-14T20:37:57.814Z,5.17
2018-05-14T20:40:26.048Z,6.10
2018-05-14T20:42:54.344Z,5.13
2018-05-14T20:45:22.623Z,5.00
2018-05-14T20:47:50.874Z,4.80
2018-05-14T20:50:19.894Z,5.30
2018-05-14T20:52:48.139Z,5.37
2018-05-14T20:55:17.162Z,5.20
2018-05-14T20:57:45.439Z,5.40
2018-05-14T21:00:13.719Z,5.57
2018-05-14T21:02:41.995Z,5.10
2018-05-14T21:05:10.268Z,5.37
2018-05-14T21:07:38.541Z,5.07
2018-05-14T21:10:06.813Z,4.73
2018-05-14T21:12:35.083Z,5.23
2018-05-14T21:15:03.323Z,5.67
2018-05-14T21:17:32.339Z,5.33
2018-05-14T21:20:00.575Z,5.23
2018-05-14T21:22:28.907Z,5.40
2018-05-14T21:24:57.863Z,5.87
2018-05-14T21:27:26.867Z,5.40
2018-05-14T21:29:55.168Z,5.57
2018-05-14T21:32:23.439Z,5.77
2018-05-14T21:34:51.685Z,5.83
2018-05-14T21:37:19.991Z,5.80
2018-05-14T21:39:48.282Z,5.47
2018-05-14T21:42:16.548Z,5.07
2018-05-14T21:44:44.819Z,5.27
2018-05-14T21:47:13.063Z,5.13
2018-05-14T21:49:41.311Z,5.50
2018-05-14T21:52:09.552Z,5.80
2018-05-14T21:54:37.803Z,5.70
2018-05-14T21:57:06.060Z,5.40
2018-05-14T21:59:35.085Z,5.40
2018-05-14T22:02:03.465Z,5.90
2018-05-14T22:04:31.694Z,6.20
2018-05-14T22:06:59.879Z,5.67
2018-05-14T22:09:28.907Z,5.73
2018-05-14T22:11:57.152Z,5.90
2018-05-14T22:14:26.178Z,5.87
2018-05-14T22:16:54.415Z,5.47
2018-05-14T22:19:23.439Z,5.93
2018-05-14T22:21:51.710Z,6.00
2018-05-14T22:24:20.056Z,5.63
2018-05-14T22:26:49.050Z,5.90
2018-05-14T22:29:18.076Z,5.57
2018-05-14T22:31:46.343Z,6.27
2018-05-14T22:34:14.606Z,6.07
2018-05-14T22:36:42.914Z,6.53
2018-05-14T22:39:11.159Z,5.60
2018-05-14T22:41:39.401Z,6.10
2018-05-14T22:44:07.735Z,6.00
2018-05-14T22:46:35.978Z,6.50
2018-05-14T22:49:04.283Z,6.43
2018-05-14T22:51:32.561Z,6.27
2018-05-14T22:54:00.811Z,6.00
2018-05-14T22:56:29.111Z,6.60
2018-05-14T22:58:57.387Z,6.10
2018-05-14T23:01:25.637Z,5.70
2018-05-14T23:03:53.880Z,5.27
2018-05-14T23:06:22.124Z,5.67
2018-05-14T23:08:50.358Z,5.73
2018-05-14T23:11:18.606Z,6.07
2018-05-14T23:13:46.839Z,5.57
2018-05-14T23:16:15.081Z,6.50
2018-05-14T23:18:43.339Z,5.80
2018-05-14T23:21:12.354Z,6.20
2018-05-14T23:23:40.597Z,5.50
2018-05-14T23:26:08.845Z,5.93
2018-05-14T23:28:37.096Z,5.77
2018-05-14T23:31:05.350Z,5.90
2018-05-14T23:33:34.353Z,6.10
2018-05-14T23:36:02.642Z,5.97
2018-05-14T23:38:30.891Z,5.83
2018-05-14T23:40:59.203Z,6.07
2018-05-14T23:43:27.468Z,5.97
2018-05-14T23:45:55.780Z,5.70
2018-05-14T23:48:24.019Z,6.63
2018-05-14T23:50:52.269Z,6.00
2018-05-14T23:53:20.512Z,5.60
2018-05-14T23:55:48.750Z,5.83
2018-05-14T23:58:17.025Z,5.80
